sensor_id;sensor_type;location;lat;lon;timestamp;P1;durP1;ratioP1;P2;durP2;ratioP2
45011;SDS011;63444;48.148;11.542;2024-03-25T00:00:09;3.80;;;1.83;;
45011;SDS011;63444;48.148;11.542;2024-03-25T00:02:36;2.33;;;1.80;;
45011;SDS011;63444;48.148;11.542;2024-03-25T00:05:03;4.17;;;2.10;;
45011;SDS011;63444;48.148;11.542;2024-03-25T00:07:30;2.47;;;1.87;;
45011;SDS011;63444;48.148;11.542;2024-03-25T00:09:56;2.23;;;1.60;;
45011;SDS011;63444;48.148;11.542;2024-03-25T00:12:24;3.00;;;1.70;;
45011;SDS011;63444;48.148;11.542;2024-03-25T00:14:52;4.10;;;1.60;;
45011;SDS011;63444;48.148;11.542;2024-03-25T00:17:20;2.77;;;1.47;;
45011;SDS011;63444;48.148;11.542;2024-03-25T00:19:46;2.30;;;1.77;;
45011;SDS011;63444;48.148;11.542;2024-03-25T00:22:16;4.27;;;2.03;;
45011;SDS011;63444;48.148;11.542;2024-03-25T00:24:46;2.03;;;1.60;;
45011;SDS011;63444;48.148;11.542;2024-03-25T00:27:12;2.80;;;1.50;;
45011;SDS011;63444;48.148;11.542;2024-03-25T00:29:38;4.30;;;1.50;;
45011;SDS011;63444;48.148;11.542;2024-03-25T00:32:04;4.03;;;2.07;;
45011;SDS011;63444;48.148;11.542;2024-03-25T00:34:30;2.43;;;1.70;;
45011;SDS011;63444;48.148;11.542;2024-03-25T00:36:57;3.40;;;1.77;;
45011;SDS011;63444;48.148;11.542;2024-03-25T00:39:23;3.67;;;1.70;;
45011;SDS011;63444;48.148;11.542;2024-03-25T00:41:50;2.57;;;1.70;;
45011;SDS011;63444;48.148;11.542;2024-03-25T00:44:16;3.20;;;1.77;;
45011;SDS011;63444;48.148;11.542;2024-03-25T00:46:42;2.20;;;1.73;;
45011;SDS011;63444;48.148;11.542;2024-03-25T00:49:08;5.13;;;2.40;;
45011;SDS011;63444;48.148;11.542;2024-03-25T00:51:35;2.27;;;1.80;;
45011;SDS011;63444;48.148;11.542;2024-03-25T00:54:03;4.60;;;1.80;;
45011;SDS011;63444;48.148;11.542;2024-03-25T00:56:31;3.10;;;1.70;;
45011;SDS011;63444;48.148;11.542;2024-03-25T00:58:57;2.03;;;1.83;;
45011;SDS011;63444;48.148;11.542;2024-03-25T01:01:27;2.33;;;1.80;;
45011;SDS011;63444;48.148;11.542;2024-03-25T01:03:57;1.83;;;1.43;;
45011;SDS011;63444;48.148;11.542;2024-03-25T01:06:25;1.70;;;1.60;;
45011;SDS011;63444;48.148;11.542;2024-03-25T01:08:52;3.53;;;1.63;;
45011;SDS011;63444;48.148;11.542;2024-03-25T01:11:18;2.30;;;1.63;;
45011;SDS011;63444;48.148;11.542;2024-03-25T01:13:43;2.33;;;1.80;;
45011;SDS011;63444;48.148;11.542;2024-03-25T01:16:09;3.07;;;1.70;;
45011;SDS011;63444;48.148;11.542;2024-03-25T01:18:35;3.33;;;1.70;;
45011;SDS011;63444;48.148;11.542;2024-03-25T01:21:01;2.90;;;1.90;;
45011;SDS011;63444;48.148;11.542;2024-03-25T01:23:27;3.07;;;1.57;;
45011;SDS011;63444;48.148;11.542;2024-03-25T01:25:53;2.57;;;1.80;;
45011;SDS011;63444;48.148;11.542;2024-03-25T01:28:20;3.87;;;2.00;;
45011;SDS011;63444;48.148;11.542;2024-03-25T01:30:46;2.37;;;1.60;;
45011;SDS011;63444;48.148;11.542;2024-03-25T01:33:11;3.73;;;1.87;;
45011;SDS011;63444;48.148;11.542;2024-03-25T01:35:38;3.03;;;1.80;;
45011;SDS011;63444;48.148;11.542;2024-03-25T01:38:05;2.97;;;1.87;;
45011;SDS011;63444;48.148;11.542;2024-03-25T01:40:30;4.70;;;1.70;;
45011;SDS011;63444;48.148;11.542;2024-03-25T01:45:29;2.40;;;1.80;;
45011;SDS011;63444;48.148;11.542;2024-03-25T01:48:02;3.80;;;1.50;;
45011;SDS011;63444;48.148;11.542;2024-03-25T01:50:33;1.87;;;1.60;;
45011;SDS011;63444;48.148;11.542;2024-03-25T01:53:11;3.13;;;1.70;;
45011;SDS011;63444;48.148;11.542;2024-03-25T01:55:39;1.77;;;1.67;;
45011;SDS011;63444;48.148;11.542;2024-03-25T01:58:05;1.90;;;1.70;;
45011;SDS011;63444;48.148;11.542;2024-03-25T02:00:36;4.43;;;1.90;;
45011;SDS011;63444;48.148;11.542;2024-03-25T02:03:03;1.80;;;1.50;;
45011;SDS011;63444;48.148;11.542;2024-03-25T02:05:29;3.00;;;1.67;;
45011;SDS011;63444;48.148;11.542;2024-03-25T02:07:55;1.70;;;1.60;;
45011;SDS011;63444;48.148;11.542;2024-03-25T02:10:22;2.67;;;1.60;;
45011;SDS011;63444;48.148;11.542;2024-03-25T02:12:47;2.70;;;1.87;;
45011;SDS011;63444;48.148;11.542;2024-03-25T02:15:14;2.77;;;1.80;;
45011;SDS011;63444;48.148;11.542;2024-03-25T02:17:40;1.90;;;1.70;;
45011;SDS011;63444;48.148;11.542;2024-03-25T02:20:06;1.90;;;1.70;;
45011;SDS011;63444;48.148;11.542;2024-03-25T02:22:36;1.73;;;1.50;;
45011;SDS011;63444;48.148;11.542;2024-03-25T02:25:05;1.80;;;1.50;;
45011;SDS011;63444;48.148;11.542;2024-03-25T02:27:35;2.97;;;1.70;;
45011;SDS011;63444;48.148;11.542;2024-03-25T02:32:30;1.80;;;1.70;;
45011;SDS011;63444;48.148;11.542;2024-03-25T02:34:56;4.33;;;1.70;;
45011;SDS011;63444;48.148;11.542;2024-03-25T02:37:23;1.77;;;1.67;;
45011;SDS011;63444;48.148;11.542;2024-03-25T02:39:50;1.97;;;1.63;;
45011;SDS011;63444;48.148;11.542;2024-03-25T02:42:18;3.73;;;1.60;;
45011;SDS011;63444;48.148;11.542;2024-03-25T02:44:50;2.93;;;1.80;;
45011;SDS011;63444;48.148;11.542;2024-03-25T02:47:17;1.80;;;1.70;;
45011;SDS011;63444;48.148;11.542;2024-03-25T02:49:44;1.90;;;1.80;;
45011;SDS011;63444;48.148;11.542;2024-03-25T02:52:11;2.67;;;1.93;;
45011;SDS011;63444;48.148;11.542;2024-03-25T02:54:38;2.13;;;1.90;;
45011;SDS011;63444;48.148;11.542;2024-03-25T02:57:04;2.47;;;2.00;;
45011;SDS011;63444;48.148;11.542;2024-03-25T02:59:30;3.67;;;1.90;;
45011;SDS011;63444;48.148;11.542;2024-03-25T03:01:55;2.47;;;1.60;;
45011;SDS011;63444;48.148;11.542;2024-03-25T03:04:21;2.73;;;2.00;;
45011;SDS011;63444;48.148;11.542;2024-03-25T03:06:47;2.93;;;2.03;;
45011;SDS011;63444;48.148;11.542;2024-03-25T03:09:14;2.80;;;1.80;;
45011;SDS011;63444;48.148;11.542;2024-03-25T03:11:41;3.73;;;2.10;;
45011;SDS011;63444;48.148;11.542;2024-03-25T03:14:07;3.00;;;1.93;;
45011;SDS011;63444;48.148;11.542;2024-03-25T03:16:36;4.93;;;2.00;;
45011;SDS011;63444;48.148;11.542;2024-03-25T03:19:01;3.00;;;2.10;;
45011;SDS011;63444;48.148;11.542;2024-03-25T03:21:27;3.50;;;2.10;;
45011;SDS011;63444;48.148;11.542;2024-03-25T03:23:55;2.60;;;2.00;;
45011;SDS011;63444;48.148;11.542;2024-03-25T03:26:20;3.00;;;2.23;;
45011;SDS011;63444;48.148;11.542;2024-03-25T03:28:47;4.17;;;2.00;;
45011;SDS011;63444;48.148;11.542;2024-03-25T03:31:13;3.07;;;1.93;;
45011;SDS011;63444;48.148;11.542;2024-03-25T03:33:39;2.40;;;1.77;;
45011;SDS011;63444;48.148;11.542;2024-03-25T03:36:05;5.30;;;2.40;;
45011;SDS011;63444;48.148;11.542;2024-03-25T03:38:33;2.73;;;2.17;;
45011;SDS011;63444;48.148;11.542;2024-03-25T03:40:59;2.83;;;2.00;;
45011;SDS011;63444;48.148;11.542;2024-03-25T03:43:25;2.57;;;1.90;;
45011;SDS011;63444;48.148;11.542;2024-03-25T03:45:52;2.00;;;1.80;;
45011;SDS011;63444;48.148;11.542;2024-03-25T03:48:19;3.33;;;1.97;;
45011;SDS011;63444;48.148;11.542;2024-03-25T03:50:44;2.87;;;2.20;;
45011;SDS011;63444;48.148;11.542;2024-03-25T03:53:10;2.97;;;2.10;;
45011;SDS011;63444;48.148;11.542;2024-03-25T03:55:38;3.10;;;2.07;;
45011;SDS011;63444;48.148;11.542;2024-03-25T03:58:04;3.77;;;2.00;;
45011;SDS011;63444;48.148;11.542;2024-03-25T04:00:33;4.03;;;2.00;;
45011;SDS011;63444;48.148;11.542;2024-03-25T04:03:00;3.57;;;2.10;;
45011;SDS011;63444;48.148;11.542;2024-03-25T04:05:29;3.50;;;2.10;;
45011;SDS011;63444;48.148;11.542;2024-03-25T04:07:56;2.07;;;1.90;;
45011;SDS011;63444;48.148;11.542;2024-03-25T04:10:23;2.80;;;1.93;;
45011;SDS011;63444;48.148;11.542;2024-03-25T04:12:48;2.57;;;1.70;;
45011;SDS011;63444;48.148;11.542;2024-03-25T04:15:14;2.63;;;2.00;;
45011;SDS011;63444;48.148;11.542;2024-03-25T04:17:43;2.40;;;1.80;;
45011;SDS011;63444;48.148;11.542;2024-03-25T04:20:10;2.97;;;2.20;;
45011;SDS011;63444;48.148;11.542;2024-03-25T04:22:36;3.53;;;2.23;;
45011;SDS011;63444;48.148;11.542;2024-03-25T04:25:05;3.50;;;2.10;;
45011;SDS011;63444;48.148;11.542;2024-03-25T04:27:32;3.60;;;1.80;;
45011;SDS011;63444;48.148;11.542;2024-03-25T04:29:58;3.97;;;2.10;;
45011;SDS011;63444;48.148;11.542;2024-03-25T04:32:24;3.30;;;1.80;;
45011;SDS011;63444;48.148;11.542;2024-03-25T04:34:50;2.40;;;1.90;;
45011;SDS011;63444;48.148;11.542;2024-03-25T04:37:15;2.40;;;2.20;;
45011;SDS011;63444;48.148;11.542;2024-03-25T04:39:41;3.40;;;1.90;;
45011;SDS011;63444;48.148;11.542;2024-03-25T04:42:07;3.40;;;1.80;;
45011;SDS011;63444;48.148;11.542;2024-03-25T04:44:33;4.60;;;2.00;;
45011;SDS011;63444;48.148;11.542;2024-03-25T04:46:58;2.90;;;2.43;;
45011;SDS011;63444;48.148;11.542;2024-03-25T04:49:24;3.00;;;2.07;;
45011;SDS011;63444;48.148;11.542;2024-03-25T04:51:52;3.23;;;2.10;;
45011;SDS011;63444;48.148;11.542;2024-03-25T04:54:18;3.40;;;2.13;;
45011;SDS011;63444;48.148;11.542;2024-03-25T04:56:44;2.47;;;1.83;;
45011;SDS011;63444;48.148;11.542;2024-03-25T04:59:09;3.77;;;1.90;;
45011;SDS011;63444;48.148;11.542;2024-03-25T05:01:35;2.73;;;2.07;;
45011;SDS011;63444;48.148;11.542;2024-03-25T05:04:01;3.00;;;2.00;;
45011;SDS011;63444;48.148;11.542;2024-03-25T05:06:27;2.63;;;1.90;;
45011;SDS011;63444;48.148;11.542;2024-03-25T05:08:54;1.70;;;1.60;;
45011;SDS011;63444;48.148;11.542;2024-03-25T05:11:20;3.10;;;1.83;;
45011;SDS011;63444;48.148;11.542;2024-03-25T05:13:45;2.73;;;2.03;;
45011;SDS011;63444;48.148;11.542;2024-03-25T05:16:13;2.70;;;1.83;;
45011;SDS011;63444;48.148;11.542;2024-03-25T05:18:38;2.37;;;2.17;;
45011;SDS011;63444;48.148;11.542;2024-03-25T05:21:04;3.00;;;1.87;;
45011;SDS011;63444;48.148;11.542;2024-03-25T05:23:29;2.10;;;1.90;;
45011;SDS011;63444;48.148;11.542;2024-03-25T05:25:55;4.33;;;1.73;;
45011;SDS011;63444;48.148;11.542;2024-03-25T05:28:21;2.50;;;1.80;;
45011;SDS011;63444;48.148;11.542;2024-03-25T05:30:46;3.10;;;2.00;;
45011;SDS011;63444;48.148;11.542;2024-03-25T05:33:14;3.00;;;2.10;;
45011;SDS011;63444;48.148;11.542;2024-03-25T05:35:41;3.90;;;2.10;;
45011;SDS011;63444;48.148;11.542;2024-03-25T05:38:07;2.10;;;1.90;;
45011;SDS011;63444;48.148;11.542;2024-03-25T05:40:33;2.43;;;1.93;;
45011;SDS011;63444;48.148;11.542;2024-03-25T05:42:58;3.53;;;2.20;;
45011;SDS011;63444;48.148;11.542;2024-03-25T05:45:24;3.37;;;2.07;;
45011;SDS011;63444;48.148;11.542;2024-03-25T05:47:50;4.17;;;2.27;;
45011;SDS011;63444;48.148;11.542;2024-03-25T05:50:16;3.40;;;2.53;;
45011;SDS011;63444;48.148;11.542;2024-03-25T05:52:42;2.20;;;2.00;;
45011;SDS011;63444;48.148;11.542;2024-03-25T05:55:08;3.10;;;2.20;;
45011;SDS011;63444;48.148;11.542;2024-03-25T05:57:35;4.20;;;2.17;;
45011;SDS011;63444;48.148;11.542;2024-03-25T06:00:01;5.27;;;2.30;;
45011;SDS011;63444;48.148;11.542;2024-03-25T06:02:28;3.43;;;2.13;;
45011;SDS011;63444;48.148;11.542;2024-03-25T06:04:56;4.17;;;2.10;;
45011;SDS011;63444;48.148;11.542;2024-03-25T06:07:22;4.97;;;2.30;;
45011;SDS011;63444;48.148;11.542;2024-03-25T06:09:48;2.07;;;1.73;;
45011;SDS011;63444;48.148;11.542;2024-03-25T06:12:13;4.37;;;2.57;;
45011;SDS011;63444;48.148;11.542;2024-03-25T06:14:39;3.47;;;2.20;;
45011;SDS011;63444;48.148;11.542;2024-03-25T06:17:05;5.07;;;2.23;;
45011;SDS011;63444;48.148;11.542;2024-03-25T06:19:31;3.13;;;2.00;;
45011;SDS011;63444;48.148;11.542;2024-03-25T06:21:57;2.63;;;1.97;;
45011;SDS011;63444;48.148;11.542;2024-03-25T06:24:22;2.30;;;2.10;;
45011;SDS011;63444;48.148;11.542;2024-03-25T06:26:49;5.07;;;2.20;;
45011;SDS011;63444;48.148;11.542;2024-03-25T06:29:14;3.37;;;2.13;;
45011;SDS011;63444;48.148;11.542;2024-03-25T06:31:40;2.67;;;2.00;;
45011;SDS011;63444;48.148;11.542;2024-03-25T06:34:24;3.33;;;1.97;;
45011;SDS011;63444;48.148;11.542;2024-03-25T06:36:51;3.30;;;1.90;;
45011;SDS011;63444;48.148;11.542;2024-03-25T06:39:17;5.03;;;1.97;;
45011;SDS011;63444;48.148;11.542;2024-03-25T06:41:43;3.47;;;1.97;;
45011;SDS011;63444;48.148;11.542;2024-03-25T06:44:09;4.50;;;2.30;;
45011;SDS011;63444;48.148;11.542;2024-03-25T06:46:35;2.30;;;1.90;;
45011;SDS011;63444;48.148;11.542;2024-03-25T06:49:00;3.83;;;2.13;;
45011;SDS011;63444;48.148;11.542;2024-03-25T06:51:26;3.77;;;2.10;;
45011;SDS011;63444;48.148;11.542;2024-03-25T06:53:52;4.70;;;2.10;;
45011;SDS011;63444;48.148;11.542;2024-03-25T06:56:18;2.17;;;1.93;;
45011;SDS011;63444;48.148;11.542;2024-03-25T06:58:43;2.77;;;2.03;;
45011;SDS011;63444;48.148;11.542;2024-03-25T07:01:10;3.83;;;1.80;;
45011;SDS011;63444;48.148;11.542;2024-03-25T07:03:38;3.70;;;2.13;;
45011;SDS011;63444;48.148;11.542;2024-03-25T07:06:04;2.77;;;1.90;;
45011;SDS011;63444;48.148;11.542;2024-03-25T07:08:30;4.30;;;2.37;;
45011;SDS011;63444;48.148;11.542;2024-03-25T07:10:58;4.43;;;2.43;;
45011;SDS011;63444;48.148;11.542;2024-03-25T07:13:24;2.83;;;1.80;;
45011;SDS011;63444;48.148;11.542;2024-03-25T07:15:50;3.43;;;1.90;;
45011;SDS011;63444;48.148;11.542;2024-03-25T07:18:16;2.53;;;1.77;;
45011;SDS011;63444;48.148;11.542;2024-03-25T07:20:42;3.67;;;1.97;;
45011;SDS011;63444;48.148;11.542;2024-03-25T07:23:10;4.80;;;2.13;;
45011;SDS011;63444;48.148;11.542;2024-03-25T07:25:35;4.03;;;2.00;;
45011;SDS011;63444;48.148;11.542;2024-03-25T07:28:01;4.03;;;1.97;;
45011;SDS011;63444;48.148;11.542;2024-03-25T07:30:27;3.77;;;1.90;;
45011;SDS011;63444;48.148;11.542;2024-03-25T07:32:56;4.37;;;2.10;;
45011;SDS011;63444;48.148;11.542;2024-03-25T07:35:23;3.13;;;1.87;;
45011;SDS011;63444;48.148;11.542;2024-03-25T07:37:49;6.50;;;2.10;;
45011;SDS011;63444;48.148;11.542;2024-03-25T07:40:18;2.57;;;1.77;;
45011;SDS011;63444;48.148;11.542;2024-03-25T07:42:45;3.23;;;1.70;;
45011;SDS011;63444;48.148;11.542;2024-03-25T07:45:10;3.57;;;1.80;;
45011;SDS011;63444;48.148;11.542;2024-03-25T07:47:36;2.87;;;2.10;;
45011;SDS011;63444;48.148;11.542;2024-03-25T07:50:02;6.50;;;2.53;;
45011;SDS011;63444;48.148;11.542;2024-03-25T07:52:28;4.57;;;2.10;;
45011;SDS011;63444;48.148;11.542;2024-03-25T07:54:54;3.43;;;1.90;;
45011;SDS011;63444;48.148;11.542;2024-03-25T07:57:20;2.77;;;1.80;;
45011;SDS011;63444;48.148;11.542;2024-03-25T07:59:46;4.93;;;2.30;;
45011;SDS011;63444;48.148;11.542;2024-03-25T08:02:12;3.33;;;1.90;;
45011;SDS011;63444;48.148;11.542;2024-03-25T08:04:38;3.07;;;2.30;;
45011;SDS011;63444;48.148;11.542;2024-03-25T08:07:04;3.93;;;2.10;;
45011;SDS011;63444;48.148;11.542;2024-03-25T08:09:30;4.33;;;1.70;;
45011;SDS011;63444;48.148;11.542;2024-03-25T08:11:56;2.93;;;2.03;;
45011;SDS011;63444;48.148;11.542;2024-03-25T08:14:21;3.67;;;1.80;;
45011;SDS011;63444;48.148;11.542;2024-03-25T08:16:48;3.37;;;2.50;;
45011;SDS011;63444;48.148;11.542;2024-03-25T08:19:13;3.20;;;2.10;;
45011;SDS011;63444;48.148;11.542;2024-03-25T08:21:40;3.10;;;2.07;;
45011;SDS011;63444;48.148;11.542;2024-03-25T08:24:05;3.23;;;2.10;;
45011;SDS011;63444;48.148;11.542;2024-03-25T08:26:31;2.60;;;1.87;;
45011;SDS011;63444;48.148;11.542;2024-03-25T08:28:57;4.93;;;2.20;;
45011;SDS011;63444;48.148;11.542;2024-03-25T08:31:24;3.33;;;2.03;;
45011;SDS011;63444;48.148;11.542;2024-03-25T08:33:50;2.03;;;1.70;;
45011;SDS011;63444;48.148;11.542;2024-03-25T08:36:16;3.20;;;1.80;;
45011;SDS011;63444;48.148;11.542;2024-03-25T08:38:43;3.17;;;1.93;;
45011;SDS011;63444;48.148;11.542;2024-03-25T08:41:09;2.43;;;1.73;;
45011;SDS011;63444;48.148;11.542;2024-03-25T08:43:35;3.67;;;1.90;;
45011;SDS011;63444;48.148;11.542;2024-03-25T08:46:01;4.33;;;1.93;;
45011;SDS011;63444;48.148;11.542;2024-03-25T08:48:28;3.87;;;1.90;;
45011;SDS011;63444;48.148;11.542;2024-03-25T08:50:54;3.80;;;2.10;;
45011;SDS011;63444;48.148;11.542;2024-03-25T08:53:20;4.67;;;1.80;;
45011;SDS011;63444;48.148;11.542;2024-03-25T08:55:46;2.63;;;1.50;;
45011;SDS011;63444;48.148;11.542;2024-03-25T08:58:13;3.53;;;1.73;;
45011;SDS011;63444;48.148;11.542;2024-03-25T09:00:39;2.80;;;1.80;;
45011;SDS011;63444;48.148;11.542;2024-03-25T09:03:05;2.90;;;1.60;;
45011;SDS011;63444;48.148;11.542;2024-03-25T09:05:32;3.73;;;2.00;;
45011;SDS011;63444;48.148;11.542;2024-03-25T09:07:59;3.27;;;1.77;;
45011;SDS011;63444;48.148;11.542;2024-03-25T09:10:25;3.03;;;1.80;;
45011;SDS011;63444;48.148;11.542;2024-03-25T09:13:09;2.40;;;1.50;;
45011;SDS011;63444;48.148;11.542;2024-03-25T09:15:35;2.47;;;1.60;;
45011;SDS011;63444;48.148;11.542;2024-03-25T09:18:01;2.00;;;1.70;;
45011;SDS011;63444;48.148;11.542;2024-03-25T09:20:28;3.57;;;1.70;;
45011;SDS011;63444;48.148;11.542;2024-03-25T09:22:53;2.80;;;1.70;;
45011;SDS011;63444;48.148;11.542;2024-03-25T09:25:19;5.27;;;1.90;;
45011;SDS011;63444;48.148;11.542;2024-03-25T09:27:45;2.10;;;1.47;;
45011;SDS011;63444;48.148;11.542;2024-03-25T09:30:12;3.17;;;1.47;;
45011;SDS011;63444;48.148;11.542;2024-03-25T09:32:38;2.27;;;1.50;;
45011;SDS011;63444;48.148;11.542;2024-03-25T09:35:05;3.37;;;1.50;;
45011;SDS011;63444;48.148;11.542;2024-03-25T09:37:30;2.27;;;1.37;;
45011;SDS011;63444;48.148;11.542;2024-03-25T09:39:57;2.93;;;1.40;;
45011;SDS011;63444;48.148;11.542;2024-03-25T09:42:26;3.77;;;1.67;;
45011;SDS011;63444;48.148;11.542;2024-03-25T09:44:56;1.70;;;1.30;;
45011;SDS011;63444;48.148;11.542;2024-03-25T09:47:22;1.83;;;1.33;;
45011;SDS011;63444;48.148;11.542;2024-03-25T09:49:48;2.73;;;1.57;;
45011;SDS011;63444;48.148;11.542;2024-03-25T09:52:15;3.90;;;1.87;;
45011;SDS011;63444;48.148;11.542;2024-03-25T09:54:41;3.10;;;1.33;;
45011;SDS011;63444;48.148;11.542;2024-03-25T09:57:07;2.40;;;1.30;;
45011;SDS011;63444;48.148;11.542;2024-03-25T09:59:39;1.83;;;1.20;;
45011;SDS011;63444;48.148;11.542;2024-03-25T10:02:05;3.47;;;1.63;;
45011;SDS011;63444;48.148;11.542;2024-03-25T10:04:34;3.10;;;1.50;;
45011;SDS011;63444;48.148;11.542;2024-03-25T10:07:09;2.23;;;1.40;;
45011;SDS011;63444;48.148;11.542;2024-03-25T10:09:35;4.80;;;1.53;;
45011;SDS011;63444;48.148;11.542;2024-03-25T10:12:00;2.53;;;1.70;;
45011;SDS011;63444;48.148;11.542;2024-03-25T10:14:26;2.87;;;1.43;;
45011;SDS011;63444;48.148;11.542;2024-03-25T10:16:52;3.60;;;1.30;;
45011;SDS011;63444;48.148;11.542;2024-03-25T10:19:18;2.23;;;1.20;;
45011;SDS011;63444;48.148;11.542;2024-03-25T10:21:44;1.70;;;1.30;;
45011;SDS011;63444;48.148;11.542;2024-03-25T10:24:09;1.87;;;1.20;;
45011;SDS011;63444;48.148;11.542;2024-03-25T10:26:36;2.83;;;1.50;;
45011;SDS011;63444;48.148;11.542;2024-03-25T10:29:06;1.77;;;1.20;;
45011;SDS011;63444;48.148;11.542;2024-03-25T10:31:32;2.97;;;1.60;;
45011;SDS011;63444;48.148;11.542;2024-03-25T10:33:58;2.60;;;1.20;;
45011;SDS011;63444;48.148;11.542;2024-03-25T10:36:24;2.60;;;1.30;;
45011;SDS011;63444;48.148;11.542;2024-03-25T10:38:54;2.80;;;1.40;;
45011;SDS011;63444;48.148;11.542;2024-03-25T10:41:22;1.73;;;1.13;;
45011;SDS011;63444;48.148;11.542;2024-03-25T10:43:50;1.70;;;1.13;;
45011;SDS011;63444;48.148;11.542;2024-03-25T10:46:19;4.57;;;1.43;;
45011;SDS011;63444;48.148;11.542;2024-03-25T10:48:59;2.00;;;1.30;;
45011;SDS011;63444;48.148;11.542;2024-03-25T10:51:32;1.27;;;1.03;;
45011;SDS011;63444;48.148;11.542;2024-03-25T10:54:01;3.33;;;1.50;;
45011;SDS011;63444;48.148;11.542;2024-03-25T10:56:28;1.97;;;1.23;;
45011;SDS011;63444;48.148;11.542;2024-03-25T10:58:53;4.30;;;1.50;;
45011;SDS011;63444;48.148;11.542;2024-03-25T11:01:21;2.13;;;1.40;;
45011;SDS011;63444;48.148;11.542;2024-03-25T11:03:47;3.03;;;1.60;;
45011;SDS011;63444;48.148;11.542;2024-03-25T11:06:17;3.73;;;1.57;;
45011;SDS011;63444;48.148;11.542;2024-03-25T11:08:43;2.80;;;1.50;;
45011;SDS011;63444;48.148;11.542;2024-03-25T11:11:12;2.27;;;1.33;;
45011;SDS011;63444;48.148;11.542;2024-03-25T11:13:38;2.83;;;1.23;;
45011;SDS011;63444;48.148;11.542;2024-03-25T11:16:05;1.43;;;1.20;;
45011;SDS011;63444;48.148;11.542;2024-03-25T11:18:33;1.67;;;1.10;;
45011;SDS011;63444;48.148;11.542;2024-03-25T11:23:36;2.03;;;1.30;;
45011;SDS011;63444;48.148;11.542;2024-03-25T11:26:21;1.47;;;1.10;;
45011;SDS011;63444;48.148;11.542;2024-03-25T11:28:49;2.37;;;1.47;;
45011;SDS011;63444;48.148;11.542;2024-03-25T11:31:15;2.30;;;1.50;;
45011;SDS011;63444;48.148;11.542;2024-03-25T11:33:41;2.70;;;1.43;;
45011;SDS011;63444;48.148;11.542;2024-03-25T11:36:07;2.13;;;1.37;;
45011;SDS011;63444;48.148;11.542;2024-03-25T11:38:34;5.23;;;1.40;;
45011;SDS011;63444;48.148;11.542;2024-03-25T11:41:00;2.73;;;1.57;;
45011;SDS011;63444;48.148;11.542;2024-03-25T11:43:26;2.27;;;1.50;;
45011;SDS011;63444;48.148;11.542;2024-03-25T11:45:52;2.03;;;1.40;;
45011;SDS011;63444;48.148;11.542;2024-03-25T11:48:19;2.10;;;1.40;;
45011;SDS011;63444;48.148;11.542;2024-03-25T11:50:45;3.10;;;1.43;;
45011;SDS011;63444;48.148;11.542;2024-03-25T11:53:15;2.30;;;1.40;;
45011;SDS011;63444;48.148;11.542;2024-03-25T11:55:41;2.60;;;1.30;;
45011;SDS011;63444;48.148;11.542;2024-03-25T11:58:12;2.83;;;1.30;;
45011;SDS011;63444;48.148;11.542;2024-03-25T12:00:45;2.47;;;1.50;;
45011;SDS011;63444;48.148;11.542;2024-03-25T12:03:14;3.13;;;1.43;;
45011;SDS011;63444;48.148;11.542;2024-03-25T12:05:40;1.97;;;1.20;;
45011;SDS011;63444;48.148;11.542;2024-03-25T12:08:08;1.93;;;1.20;;
45011;SDS011;63444;48.148;11.542;2024-03-25T12:10:35;2.77;;;1.33;;
45011;SDS011;63444;48.148;11.542;2024-03-25T12:13:21;1.93;;;1.40;;
45011;SDS011;63444;48.148;11.542;2024-03-25T12:15:50;1.93;;;1.10;;
45011;SDS011;63444;48.148;11.542;2024-03-25T12:18:16;3.97;;;1.30;;
45011;SDS011;63444;48.148;11.542;2024-03-25T12:20:44;1.67;;;1.00;;
45011;SDS011;63444;48.148;11.542;2024-03-25T12:23:10;1.63;;;1.23;;
45011;SDS011;63444;48.148;11.542;2024-03-25T12:25:36;2.13;;;1.30;;
45011;SDS011;63444;48.148;11.542;2024-03-25T12:28:12;2.33;;;1.30;;
45011;SDS011;63444;48.148;11.542;2024-03-25T12:30:52;2.03;;;1.30;;
45011;SDS011;63444;48.148;11.542;2024-03-25T12:33:19;1.40;;;1.10;;
45011;SDS011;63444;48.148;11.542;2024-03-25T12:35:49;3.17;;;1.40;;
45011;SDS011;63444;48.148;11.542;2024-03-25T12:38:22;4.07;;;1.50;;
45011;SDS011;63444;48.148;11.542;2024-03-25T12:40:54;4.43;;;1.20;;
45011;SDS011;63444;48.148;11.542;2024-03-25T12:43:28;1.90;;;1.27;;
45011;SDS011;63444;48.148;11.542;2024-03-25T12:45:58;1.80;;;1.27;;
45011;SDS011;63444;48.148;11.542;2024-03-25T12:48:24;2.27;;;1.30;;
45011;SDS011;63444;48.148;11.542;2024-03-25T12:50:50;2.53;;;1.43;;
45011;SDS011;63444;48.148;11.542;2024-03-25T12:53:17;2.30;;;1.30;;
45011;SDS011;63444;48.148;11.542;2024-03-25T12:55:45;2.50;;;1.27;;
45011;SDS011;63444;48.148;11.542;2024-03-25T12:58:11;2.50;;;1.40;;
45011;SDS011;63444;48.148;11.542;2024-03-25T13:00:37;1.10;;;1.00;;
45011;SDS011;63444;48.148;11.542;2024-03-25T13:03:03;4.03;;;1.63;;
45011;SDS011;63444;48.148;11.542;2024-03-25T13:05:33;2.43;;;1.37;;
45011;SDS011;63444;48.148;11.542;2024-03-25T13:07:59;1.77;;;1.27;;
45011;SDS011;63444;48.148;11.542;2024-03-25T13:10:25;2.43;;;1.67;;
45011;SDS011;63444;48.148;11.542;2024-03-25T13:12:51;1.53;;;1.10;;
45011;SDS011;63444;48.148;11.542;2024-03-25T13:15:17;2.37;;;1.10;;
45011;SDS011;63444;48.148;11.542;2024-03-25T13:17:42;1.30;;;1.07;;
45011;SDS011;63444;48.148;11.542;2024-03-25T13:20:08;2.03;;;1.30;;
45011;SDS011;63444;48.148;11.542;2024-03-25T13:22:34;1.27;;;1.17;;
45011;SDS011;63444;48.148;11.542;2024-03-25T13:25:00;1.97;;;1.13;;
45011;SDS011;63444;48.148;11.542;2024-03-25T13:27:26;1.93;;;1.30;;
45011;SDS011;63444;48.148;11.542;2024-03-25T13:29:52;1.73;;;1.10;;
45011;SDS011;63444;48.148;11.542;2024-03-25T13:32:19;2.63;;;1.10;;
45011;SDS011;63444;48.148;11.542;2024-03-25T13:34:44;1.57;;;1.13;;
45011;SDS011;63444;48.148;11.542;2024-03-25T13:37:12;1.87;;;1.20;;
45011;SDS011;63444;48.148;11.542;2024-03-25T13:39:37;1.60;;;1.20;;
45011;SDS011;63444;48.148;11.542;2024-03-25T13:42:03;2.90;;;1.30;;
45011;SDS011;63444;48.148;11.542;2024-03-25T13:44:30;2.80;;;1.53;;
45011;SDS011;63444;48.148;11.542;2024-03-25T13:46:55;1.83;;;1.30;;
45011;SDS011;63444;48.148;11.542;2024-03-25T13:49:21;3.23;;;1.90;;
45011;SDS011;63444;48.148;11.542;2024-03-25T13:51:50;2.37;;;1.30;;
45011;SDS011;63444;48.148;11.542;2024-03-25T13:54:21;1.77;;;1.30;;
45011;SDS011;63444;48.148;11.542;2024-03-25T13:56:49;2.20;;;1.30;;
45011;SDS011;63444;48.148;11.542;2024-03-25T13:59:15;1.37;;;1.23;;
45011;SDS011;63444;48.148;11.542;2024-03-25T14:01:40;3.20;;;1.40;;
45011;SDS011;63444;48.148;11.542;2024-03-25T14:04:06;1.30;;;1.10;;
45011;SDS011;63444;48.148;11.542;2024-03-25T14:06:32;3.03;;;1.13;;
45011;SDS011;63444;48.148;11.542;2024-03-25T14:08:59;1.90;;;1.27;;
45011;SDS011;63444;48.148;11.542;2024-03-25T14:11:25;2.83;;;1.60;;
45011;SDS011;63444;48.148;11.542;2024-03-25T14:13:51;2.30;;;1.47;;
45011;SDS011;63444;48.148;11.542;2024-03-25T14:16:17;1.83;;;1.23;;
45011;SDS011;63444;48.148;11.542;2024-03-25T14:18:42;1.07;;;1.07;;
45011;SDS011;63444;48.148;11.542;2024-03-25T14:21:08;2.53;;;1.20;;
45011;SDS011;63444;48.148;11.542;2024-03-25T14:23:34;2.23;;;1.43;;
45011;SDS011;63444;48.148;11.542;2024-03-25T14:25:59;3.17;;;1.30;;
45011;SDS011;63444;48.148;11.542;2024-03-25T14:28:26;1.80;;;1.30;;
45011;SDS011;63444;48.148;11.542;2024-03-25T14:30:52;3.33;;;1.60;;
45011;SDS011;63444;48.148;11.542;2024-03-25T14:33:18;3.50;;;1.30;;
45011;SDS011;63444;48.148;11.542;2024-03-25T14:35:43;1.97;;;1.20;;
45011;SDS011;63444;48.148;11.542;2024-03-25T14:38:09;2.73;;;1.70;;